Time;durP1;ratioP1;P1;durP2;ratioP2;P2;SDS_P1;SDS_P2;PMS_P1;PMS_P2;Temp;Humidity;BMP_temperature;BMP_pressure;BME280_temperature;BME280_humidity;BME280_pressure;Samples;Min_cycle;Max_cycle;Signal;HPM_P1;HPM_P2
2024/01/27 00:00:10;;;;;;;20.33;5.50;;;5.60;99.90;;;;;;7289433;19;20285;-81
2024/01/27 00:02:37;;;;;;;14.10;4.63;;;5.50;99.90;;;;;;7289451;19;20192;-80
2024/01/27 00:05:03;;;;;;;16.37;5.07;;;5.50;99.90;;;;;;7288471;19;20209;-81
2024/01/27 00:07:29;;;;;;;17.37;5.07;;;5.40;99.90;;;;;;7289976;19;20186;-81
2024/01/27 00:09:55;;;;;;;20.80;5.47;;;5.30;99.90;;;;;;7289103;19;20185;-81
2024/01/27 00:12:21;;;;;;;21.43;5.13;;;5.30;99.90;;;;;;7310374;19;20253;-81
2024/01/27 00:14:47;;;;;;;18.97;5.00;;;5.30;99.90;;;;;;7288618;19;20212;-81
2024/01/27 00:17:13;;;;;;;19.73;5.50;;;5.30;99.90;;;;;;7288139;19;20191;-81
2024/01/27 00:19:38;;;;;;;21.33;6.77;;;5.30;99.90;;;;;;7288187;19;20211;-80
2024/01/27 00:22:04;;;;;;;20.77;7.97;;;5.30;99.90;;;;;;7287830;19;20255;-80
2024/01/27 00:24:30;;;;;;;21.73;8.50;;;5.30;99.90;;;;;;7289130;19;20215;-81
2024/01/27 00:26:56;;;;;;;26.73;8.03;;;5.20;99.90;;;;;;7286599;19;20193;-81
2024/01/27 00:29:22;;;;;;;20.13;7.60;;;5.20;99.90;;;;;;7297306;19;20513;-79
2024/01/27 00:31:49;;;;;;;24.50;6.97;;;5.10;99.90;;;;;;7304721;19;20192;-80
2024/01/27 00:34:15;;;;;;;22.07;7.43;;;5.00;99.90;;;;;;7287163;19;20191;-81
2024/01/27 00:36:42;;;;;;;21.40;7.10;;;5.00;99.90;;;;;;7282302;19;20210;-80
2024/01/27 00:39:08;;;;;;;21.33;6.97;;;5.10;99.90;;;;;;7287743;19;20196;-80
2024/01/27 00:41:34;;;;;;;20.67;6.93;;;5.10;99.90;;;;;;7285239;19;20180;-81
2024/01/27 00:43:59;;;;;;;20.13;6.87;;;5.00;99.90;;;;;;7286173;19;20591;-81
2024/01/27 00:46:25;;;;;;;21.37;7.13;;;4.80;99.90;;;;;;7285330;19;20192;-81
2024/01/27 00:48:51;;;;;;;19.20;7.30;;;4.80;99.90;;;;;;7308663;19;20632;-81
2024/01/27 00:51:16;;;;;;;27.60;7.63;;;4.70;99.90;;;;;;7289427;19;20655;-81
2024/01/27 00:53:42;;;;;;;20.03;7.07;;;4.70;99.90;;;;;;7287148;19;20189;-81
2024/01/27 00:56:08;;;;;;;22.10;7.43;;;4.60;99.90;;;;;;7284997;19;20581;-81
2024/01/27 00:58:34;;;;;;;21.60;7.60;;;4.70;99.90;;;;;;7286701;19;20204;-81
2024/01/27 01:01:01;;;;;;;24.30;7.73;;;4.70;99.90;;;;;;7288107;19;20176;-81
2024/01/27 01:03:28;;;;;;;19.37;8.17;;;4.70;99.90;;;;;;7288080;19;20230;-81
2024/01/27 01:05:53;;;;;;;21.33;7.67;;;4.60;99.90;;;;;;7287314;19;20201;-82
2024/01/27 01:08:19;;;;;;;26.03;8.17;;;4.50;99.90;;;;;;7309523;19;20186;-82
2024/01/27 01:10:45;;;;;;;25.10;7.83;;;4.50;99.90;;;;;;7287514;19;20262;-82
2024/01/27 01:13:11;;;;;;;23.93;8.40;;;4.40;99.90;;;;;;7287003;19;20195;-82
2024/01/27 01:15:36;;;;;;;24.23;8.20;;;4.40;99.90;;;;;;7287983;19;20202;-81
2024/01/27 01:18:03;;;;;;;23.07;8.17;;;4.40;99.90;;;;;;7287072;19;20523;-81
2024/01/27 01:20:30;;;;;;;23.20;8.40;;;4.50;99.90;;;;;;7288029;19;20186;-81
2024/01/27 01:22:56;;;;;;;22.77;8.13;;;4.40;99.90;;;;;;7286322;19;20216;-81
2024/01/27 01:25:21;;;;;;;21.67;8.13;;;4.40;99.90;;;;;;7305034;19;20620;-81
2024/01/27 01:27:49;;;;;;;23.13;7.80;;;4.30;99.90;;;;;;7298881;19;20186;-81
2024/01/27 01:30:16;;;;;;;23.97;8.33;;;4.10;99.90;;;;;;7286183;19;20312;-81
2024/01/27 01:32:42;;;;;;;20.57;8.20;;;4.10;99.90;;;;;;7288089;19;20698;-81
2024/01/27 01:35:09;;;;;;;22.67;7.90;;;4.10;99.90;;;;;;7286918;19;20218;-81
2024/01/27 01:37:35;;;;;;;20.90;7.73;;;4.00;99.90;;;;;;7286637;19;20661;-82
2024/01/27 01:40:02;;;;;;;22.90;8.10;;;4.00;99.90;;;;;;7286636;19;20216;-81
2024/01/27 01:42:29;;;;;;;24.50;8.27;;;4.00;99.90;;;;;;7286715;19;20194;-82
2024/01/27 01:44:55;;;;;;;19.83;7.70;;;3.90;99.90;;;;;;7287864;19;20270;-81
2024/01/27 01:47:22;;;;;;;24.60;8.70;;;4.00;99.90;;;;;;7320751;19;20222;-80
2024/01/27 01:49:48;;;;;;;22.43;8.03;;;3.90;99.90;;;;;;7298890;19;20191;-80
2024/01/27 01:52:19;;;;;;;34.50;9.70;;;3.90;99.90;;;;;;7292251;19;20217;-81
2024/01/27 01:54:49;;;;;;;22.60;8.23;;;3.90;99.90;;;;;;7288164;19;20189;-81
2024/01/27 01:57:16;;;;;;;20.63;8.30;;;3.80;99.90;;;;;;7285662;19;20355;-81
2024/01/27 01:59:42;;;;;;;25.93;8.60;;;3.80;99.90;;;;;;7286848;19;20195;-82
2024/01/27 02:02:10;;;;;;;22.53;8.77;;;3.80;99.90;;;;;;7285029;19;20201;-81
2024/01/27 02:04:42;;;;;;;20.97;9.20;;;3.90;99.90;;;;;;7285546;19;20202;-81
2024/01/27 02:07:09;;;;;;;27.33;9.10;;;4.00;99.90;;;;;;7284187;19;20258;-81
2024/01/27 02:09:35;;;;;;;26.17;9.13;;;4.00;99.90;;;;;;7283733;19;20622;-82
2024/01/27 02:12:01;;;;;;;24.10;9.17;;;4.00;99.90;;;;;;7284409;19;20185;-82
2024/01/27 02:14:27;;;;;;;23.03;8.97;;;4.00;99.90;;;;;;7286816;19;20214;-82
2024/01/27 02:16:53;;;;;;;19.40;8.03;;;4.00;99.90;;;;;;7289860;19;20207;-81
2024/01/27 02:19:19;;;;;;;31.50;10.70;;;4.00;99.90;;;;;;7307008;19;20224;-82
2024/01/27 02:21:45;;;;;;;24.93;8.10;;;3.80;99.90;;;;;;7278571;19;20245;-81
2024/01/27 02:24:11;;;;;;;24.43;8.27;;;3.90;99.90;;;;;;7282805;19;20551;-81
2024/01/27 02:26:37;;;;;;;22.63;8.93;;;3.90;99.90;;;;;;7283173;19;20668;-82
2024/01/27 02:29:02;;;;;;;30.13;9.10;;;3.90;99.90;;;;;;7284017;19;20185;-82
2024/01/27 02:31:28;;;;;;;26.53;7.80;;;3.90;99.90;;;;;;7283087;19;20189;-81
2024/01/27 02:33:54;;;;;;;28.27;8.63;;;3.80;99.90;;;;;;7284884;19;20291;-82
2024/01/27 02:36:20;;;;;;;20.57;7.33;;;3.70;99.90;;;;;;7305258;19;20338;-81
2024/01/27 02:38:46;;;;;;;24.00;7.70;;;3.70;99.90;;;;;;7283165;19;20179;-81
2024/01/27 02:41:11;;;;;;;22.40;7.57;;;3.60;99.90;;;;;;7284410;19;20265;-81
2024/01/27 02:43:37;;;;;;;27.33;7.90;;;3.60;99.90;;;;;;7284642;19;20182;-80
2024/01/27 02:46:09;;;;;;;20.37;6.90;;;3.60;99.90;;;;;;7286254;19;20197;-81
2024/01/27 02:48:35;;;;;;;21.70;7.23;;;3.70;99.90;;;;;;7284174;19;20192;-82
2024/01/27 02:51:04;;;;;;;27.00;7.87;;;3.70;99.90;;;;;;7284419;19;20195;-80
2024/01/27 02:53:30;;;;;;;25.53;7.63;;;3.70;99.90;;;;;;7282568;19;20202;-80
2024/01/27 02:55:56;;;;;;;25.70;7.67;;;3.70;99.90;;;;;;7284053;19;20193;-81
2024/01/27 02:58:22;;;;;;;25.60;7.40;;;3.70;99.90;;;;;;7305494;19;20556;-80
2024/01/27 03:00:48;;;;;;;25.07;7.57;;;3.70;99.90;;;;;;7284950;19;20197;-80
2024/01/27 03:03:14;;;;;;;24.30;7.50;;;3.80;99.90;;;;;;7282987;19;20637;-80
2024/01/27 03:05:41;;;;;;;25.47;7.43;;;3.90;99.90;;;;;;7284805;19;20204;-81
2024/01/27 03:08:06;;;;;;;20.47;7.33;;;3.90;99.90;;;;;;7283555;19;20195;-81
2024/01/27 03:10:32;;;;;;;34.43;7.33;;;4.00;99.90;;;;;;7284307;19;20722;-80
2024/01/27 03:12:58;;;;;;;27.03;7.73;;;4.00;99.90;;;;;;7284047;19;20297;-80
2024/01/27 03:15:24;;;;;;;27.17;8.13;;;3.90;99.90;;;;;;7282093;19;20186;-80
2024/01/27 03:17:50;;;;;;;25.83;7.67;;;3.80;99.90;;;;;;7305833;19;20278;-80
2024/01/27 03:20:15;;;;;;;26.00;8.33;;;3.70;99.90;;;;;;7282070;19;20886;-80
2024/01/27 03:22:41;;;;;;;21.90;7.50;;;3.90;99.90;;;;;;7282586;19;20194;-80
2024/01/27 03:25:10;;;;;;;25.20;7.80;;;3.90;99.90;;;;;;7283263;19;20199;-81
2024/01/27 03:27:36;;;;;;;38.77;8.47;;;3.90;99.90;;;;;;7282783;19;20553;-80
2024/01/27 03:30:03;;;;;;;22.50;7.43;;;3.80;99.90;;;;;;7282878;19;20188;-81
2024/01/27 03:32:33;;;;;;;21.77;7.10;;;3.90;99.90;;;;;;7282126;19;20200;-80
2024/01/27 03:34:59;;;;;;;24.70;6.83;;;3.80;99.90;;;;;;7282496;19;20190;-80
2024/01/27 03:37:25;;;;;;;18.97;6.67;;;3.70;99.90;;;;;;7282127;19;20185;-80
2024/01/27 03:39:51;;;;;;;23.63;7.40;;;3.50;99.90;;;;;;7305631;19;20304;-81
2024/01/27 03:42:16;;;;;;;25.07;8.03;;;3.50;99.90;;;;;;7283211;19;20261;-80
2024/01/27 03:44:42;;;;;;;27.73;7.47;;;3.50;99.90;;;;;;7283409;19;20650;-81
2024/01/27 03:47:08;;;;;;;34.17;8.17;;;3.50;99.90;;;;;;7282806;19;20685;-80
2024/01/27 03:49:34;;;;;;;22.93;7.60;;;3.50;99.90;;;;;;7282388;19;20603;-81
2024/01/27 03:51:59;;;;;;;18.40;7.60;;;3.40;99.90;;;;;;7283673;19;20548;-81
2024/01/27 03:54:25;;;;;;;27.50;7.47;;;3.30;99.90;;;;;;7284053;19;20185;-80
2024/01/27 03:56:51;;;;;;;19.47;7.57;;;3.30;99.90;;;;;;7303183;19;22301;-81
2024/01/27 03:59:17;;;;;;;25.03;7.60;;;3.30;99.90;;;;;;7282173;19;20194;-81
2024/01/27 04:01:43;;;;;;;26.07;7.90;;;3.30;99.90;;;;;;7281127;19;20187;-81
2024/01/27 04:04:08;;;;;;;31.40;7.80;;;3.30;99.90;;;;;;7282911;19;20543;-80
2024/01/27 04:06:40;;;;;;;25.97;7.67;;;3.40;99.90;;;;;;7282359;19;20202;-80
2024/01/27 04:09:10;;;;;;;25.17;8.47;;;3.40;99.90;;;;;;7283099;19;20196;-80
2024/01/27 04:11:36;;;;;;;25.97;7.60;;;3.50;99.90;;;;;;7279758;19;20183;-81
2024/01/27 04:14:03;;;;;;;27.77;7.87;;;3.40;99.90;;;;;;7283600;19;20194;-81
2024/01/27 04:16:29;;;;;;;24.17;8.17;;;3.40;99.90;;;;;;7281709;19;20181;-81
2024/01/27 04:18:55;;;;;;;25.93;8.80;;;3.40;99.90;;;;;;7281121;19;20199;-80
2024/01/27 04:21:21;;;;;;;29.90;8.53;;;3.40;99.90;;;;;;7302223;19;20186;-81
2024/01/27 04:23:47;;;;;;;26.07;8.53;;;3.50;99.90;;;;;;7280468;19;20196;-81
2024/01/27 04:26:12;;;;;;;30.80;9.03;;;3.50;99.90;;;;;;7281492;19;20202;-80
2024/01/27 04:28:39;;;;;;;31.33;9.10;;;3.50;99.90;;;;;;7279859;19;20195;-81
2024/01/27 04:31:05;;;;;;;23.90;8.70;;;3.60;99.90;;;;;;7282892;19;20195;-81
2024/01/27 04:33:30;;;;;;;34.73;9.30;;;3.60;99.90;;;;;;7287967;19;20207;-81
2024/01/27 04:35:56;;;;;;;27.63;8.20;;;3.60;99.90;;;;;;7285132;19;20179;-80
2024/01/27 04:38:22;;;;;;;28.57;8.43;;;3.60;99.90;;;;;;7307781;19;20193;-80
2024/01/27 04:40:48;;;;;;;34.70;9.60;;;3.60;99.90;;;;;;7286495;19;20191;-80
2024/01/27 04:43:18;;;;;;;26.63;8.43;;;3.60;99.90;;;;;;7286680;19;20221;-81
2024/01/27 04:45:44;;;;;;;27.70;9.30;;;3.60;99.90;;;;;;7289217;19;20179;-81
2024/01/27 04:48:10;;;;;;;32.40;9.30;;;3.50;99.90;;;;;;7289031;19;20199;-81
2024/01/27 04:50:36;;;;;;;20.47;8.13;;;3.50;99.90;;;;;;7291574;19;20212;-80
2024/01/27 04:53:02;;;;;;;29.30;8.80;;;3.40;99.90;;;;;;7295256;19;20194;-80
2024/01/27 04:55:28;;;;;;;25.53;9.20;;;3.50;99.90;;;;;;7304271;19;20269;-79
2024/01/27 04:57:53;;;;;;;27.53;8.20;;;3.40;99.90;;;;;;7309427;19;20693;-79
2024/01/27 05:00:19;;;;;;;30.37;8.27;;;3.30;99.90;;;;;;7318416;19;20186;-80
2024/01/27 05:02:47;;;;;;;28.13;8.30;;;3.20;99.90;;;;;;7289770;19;20183;-80
2024/01/27 05:05:12;;;;;;;28.50;8.90;;;3.10;99.90;;;;;;7287550;19;20223;-81
2024/01/27 05:07:39;;;;;;;28.67;9.10;;;3.00;99.90;;;;;;7286405;19;20185;-80
2024/01/27 05:10:05;;;;;;;32.40;9.13;;;2.90;99.90;;;;;;7287234;19;20207;-81
2024/01/27 05:12:31;;;;;;;24.53;8.33;;;3.00;99.90;;;;;;7286607;19;20521;-81
2024/01/27 05:14:57;;;;;;;22.47;7.53;;;2.90;99.90;;;;;;7285190;19;20191;-81
2024/01/27 05:17:23;;;;;;;19.20;8.17;;;2.80;99.90;;;;;;7302228;19;20260;-81
2024/01/27 05:19:50;;;;;;;23.70;8.13;;;2.70;99.90;;;;;;7300974;19;20266;-81
2024/01/27 05:22:17;;;;;;;19.13;7.77;;;2.70;99.90;;;;;;7287147;19;20199;-81
2024/01/27 05:24:43;;;;;;;23.00;7.57;;;2.80;99.90;;;;;;7287843;19;20245;-81
2024/01/27 05:27:09;;;;;;;23.27;8.67;;;2.80;99.90;;;;;;7289445;19;20292;-80
2024/01/27 05:29:37;;;;;;;24.33;8.50;;;2.90;99.90;;;;;;7285407;19;20213;-81
2024/01/27 05:32:03;;;;;;;30.57;8.57;;;2.80;99.90;;;;;;7285151;19;20186;-81
2024/01/27 05:34:29;;;;;;;26.07;8.60;;;2.90;99.90;;;;;;7285426;19;20190;-81
2024/01/27 05:36:55;;;;;;;27.30;8.53;;;2.90;99.90;;;;;;7284573;19;20545;-81
2024/01/27 05:39:20;;;;;;;30.27;9.30;;;2.90;99.90;;;;;;7307836;19;20194;-81
2024/01/27 05:41:46;;;;;;;29.27;9.10;;;2.90;99.90;;;;;;7284420;19;20253;-81
2024/01/27 05:44:12;;;;;;;26.63;9.40;;;2.90;99.90;;;;;;7283712;19;20304;-81
2024/01/27 05:46:38;;;;;;;28.07;9.37;;;3.00;99.90;;;;;;7286108;19;20518;-81
2024/01/27 05:49:03;;;;;;;27.97;9.13;;;3.00;99.90;;;;;;7284377;19;20188;-81
2024/01/27 05:51:30;;;;;;;30.87;8.40;;;3.10;99.90;;;;;;7285706;19;20182;-81
2024/01/27 05:53:56;;;;;;;25.63;9.10;;;2.80;99.90;;;;;;7284833;19;20194;-81
2024/01/27 05:56:22;;;;;;;27.30;9.13;;;2.70;99.90;;;;;;7308246;19;20565;-80
2024/01/27 05:58:48;;;;;;;31.77;9.03;;;2.60;99.90;;;;;;7286158;19;20622;-81
2024/01/27 06:01:14;;;;;;;29.63;9.63;;;2.70;99.90;;;;;;7284367;19;20971;-81
2024/01/27 06:03:43;;;;;;;25.70;8.73;;;2.80;99.90;;;;;;7284591;19;20196;-82
2024/01/27 06:06:09;;;;;;;27.17;8.63;;;2.90;99.90;;;;;;7286064;19;20207;-80
2024/01/27 06:08:35;;;;;;;27.90;9.07;;;2.70;99.90;;;;;;7284436;19;20215;-80
2024/01/27 06:11:04;;;;;;;28.17;9.30;;;2.50;99.90;;;;;;7283977;19;20190;-80
2024/01/27 06:13:30;;;;;;;32.00;8.47;;;2.60;99.90;;;;;;7284988;19;20193;-80
2024/01/27 06:15:56;;;;;;;23.63;7.97;;;2.60;99.90;;;;;;7281992;19;20199;-79
2024/01/27 06:18:21;;;;;;;22.87;7.83;;;2.70;99.90;;;;;;7303678;19;20278;-80
2024/01/27 06:20:47;;;;;;;22.10;8.07;;;2.50;99.90;;;;;;7283258;19;20692;-80
2024/01/27 06:23:13;;;;;;;21.83;8.57;;;2.40;99.90;;;;;;7280869;19;20196;-80
2024/01/27 06:25:39;;;;;;;23.97;8.33;;;2.40;99.90;;;;;;7281128;19;20203;-81
2024/01/27 06:28:05;;;;;;;28.23;8.60;;;2.40;99.90;;;;;;7284852;19;20259;-80
2024/01/27 06:30:30;;;;;;;22.03;8.67;;;2.50;99.90;;;;;;7282345;19;20202;-80
2024/01/27 06:32:56;;;;;;;29.10;8.80;;;2.50;99.90;;;;;;7280784;19;20259;-80
2024/01/27 06:35:22;;;;;;;28.87;9.43;;;2.50;99.90;;;;;;7307082;19;20213;-81
2024/01/27 06:37:48;;;;;;;27.90;10.47;;;2.50;99.90;;;;;;7284436;19;20205;-81
2024/01/27 06:40:14;;;;;;;36.47;11.73;;;2.60;99.90;;;;;;7284148;19;20649;-80
2024/01/27 06:42:39;;;;;;;29.53;11.10;;;2.50;99.90;;;;;;7284127;19;20192;-80
2024/01/27 06:45:05;;;;;;;39.73;11.50;;;2.60;99.90;;;;;;7285684;19;20653;-81
2024/01/27 06:47:31;;;;;;;33.00;10.97;;;2.70;99.90;;;;;;7283518;19;20216;-80
2024/01/27 06:49:57;;;;;;;32.57;10.67;;;2.80;99.90;;;;;;7284144;19;20194;-81
2024/01/27 06:52:22;;;;;;;33.30;10.33;;;2.60;99.90;;;;;;7304803;19;20197;-82
2024/01/27 06:54:48;;;;;;;28.50;10.77;;;2.60;99.90;;;;;;7290978;19;20189;-80
2024/01/27 06:57:21;;;;;;;36.87;10.90;;;2.50;99.90;;;;;;7283387;19;20195;-80
2024/01/27 06:59:52;;;;;;;27.83;9.67;;;2.50;99.90;;;;;;7283522;19;20188;-81
2024/01/27 07:02:19;;;;;;;28.00;9.67;;;2.60;99.90;;;;;;7280927;19;20562;-80
2024/01/27 07:04:44;;;;;;;30.13;10.20;;;2.70;99.90;;;;;;7282962;19;20210;-80
2024/01/27 07:07:10;;;;;;;27.80;12.23;;;2.70;99.90;;;;;;7283480;19;20646;-81
2024/01/27 07:09:36;;;;;;;29.00;10.00;;;2.80;99.90;;;;;;7279175;19;20189;-81
2024/01/27 07:12:02;;;;;;;24.67;10.20;;;2.70;99.90;;;;;;7281053;19;20197;-79
2024/01/27 07:14:27;;;;;;;32.30;10.37;;;2.80;99.90;;;;;;7284050;19;20188;-80
2024/01/27 07:16:53;;;;;;;31.10;10.10;;;2.80;99.90;;;;;;7295333;19;20256;-80
2024/01/27 07:19:19;;;;;;;28.63;9.03;;;2.80;99.90;;;;;;7298540;19;20195;-80
2024/01/27 07:21:44;;;;;;;27.67;9.90;;;2.90;99.90;;;;;;7286568;19;20324;-80
2024/01/27 07:24:10;;;;;;;24.40;10.00;;;2.90;99.90;;;;;;7281463;19;20186;-80
2024/01/27 07:26:36;;;;;;;25.13;9.20;;;2.90;99.90;;;;;;7283093;19;20193;-80
2024/01/27 07:29:01;;;;;;;24.17;9.80;;;2.90;99.90;;;;;;7283211;19;20184;-81
2024/01/27 07:31:27;;;;;;;25.87;10.13;;;2.80;99.90;;;;;;7283638;19;20197;-80
2024/01/27 07:33:53;;;;;;;22.97;9.40;;;2.80;99.90;;;;;;7296013;19;20186;-80
2024/01/27 07:36:19;;;;;;;30.47;9.77;;;2.80;99.90;;;;;;7297782;19;20193;-80
2024/01/27 07:38:44;;;;;;;29.33;10.47;;;2.90;99.90;;;;;;7283141;19;20202;-80
2024/01/27 07:41:10;;;;;;;31.10;10.60;;;3.00;99.90;;;;;;7283350;19;20198;-80
2024/01/27 07:43:36;;;;;;;30.17;9.53;;;3.10;99.90;;;;;;7283514;19;20199;-79
2024/01/27 07:46:02;;;;;;;28.13;10.27;;;3.20;99.90;;;;;;7284182;19;20195;-80
2024/01/27 07:48:27;;;;;;;23.00;9.43;;;3.10;99.90;;;;;;7282837;19;20204;-80
2024/01/27 07:50:53;;;;;;;26.53;8.77;;;3.10;99.90;;;;;;7300512;19;20220;-80
2024/01/27 07:53:19;;;;;;;27.40;9.60;;;3.20;99.90;;;;;;7305476;19;20216;-80
2024/01/27 07:55:44;;;;;;;32.70;9.53;;;3.10;99.90;;;;;;7294654;19;20190;-80
2024/01/27 07:58:10;;;;;;;27.77;9.23;;;3.10;99.90;;;;;;7297396;19;20549;-80
2024/01/27 08:00:36;;;;;;;27.17;9.47;;;3.20;99.90;;;;;;7296470;19;20193;-80
2024/01/27 08:03:01;;;;;;;27.70;10.37;;;3.10;99.90;;;;;;7284999;19;20235;-80
2024/01/27 08:05:27;;;;;;;30.70;9.80;;;3.00;99.90;;;;;;7283615;19;20940;-80
2024/01/27 08:07:53;;;;;;;33.20;9.37;;;2.90;99.90;;;;;;7305325;19;20713;-80
2024/01/27 08:10:19;;;;;;;34.23;9.03;;;3.00;99.90;;;;;;7301132;19;20186;-82
2024/01/27 08:12:44;;;;;;;25.83;10.50;;;3.00;99.90;;;;;;7289811;19;20216;-81
2024/01/27 08:15:11;;;;;;;27.80;11.23;;;3.00;99.90;;;;;;7285414;19;20183;-80
2024/01/27 08:17:37;;;;;;;29.97;11.63;;;3.10;99.90;;;;;;7287267;19;20192;-81
2024/01/27 08:20:03;;;;;;;24.93;10.50;;;3.20;99.90;;;;;;7289092;19;20198;-81
2024/01/27 08:22:28;;;;;;;30.17;8.93;;;3.20;99.90;;;;;;7288213;19;20182;-80
2024/01/27 08:24:55;;;;;;;26.10;8.77;;;3.20;99.90;;;;;;7294772;19;20195;-81
2024/01/27 08:27:22;;;;;;;28.23;8.97;;;3.20;99.90;;;;;;7310330;19;20203;-81
2024/01/27 08:29:48;;;;;;;24.27;8.03;;;3.30;99.90;;;;;;7288147;19;20198;-80
2024/01/27 08:32:14;;;;;;;28.37;9.10;;;3.40;99.90;;;;;;7288010;19;20188;-80
2024/01/27 08:34:42;;;;;;;26.20;8.67;;;3.50;99.90;;;;;;7287973;19;20184;-80
2024/01/27 08:37:18;;;;;;;27.03;7.93;;;3.50;99.90;;;;;;7288537;19;20211;-80
2024/01/27 08:39:44;;;;;;;28.27;9.73;;;3.50;99.90;;;;;;7286218;19;20298;-81
2024/01/27 08:42:10;;;;;;;24.53;8.90;;;3.70;99.90;;;;;;7288649;19;20192;-81
2024/01/27 08:44:36;;;;;;;23.10;8.47;;;3.70;99.90;;;;;;7289472;19;20186;-80
2024/01/27 08:47:01;;;;;;;31.67;9.57;;;3.80;99.90;;;;;;7288404;19;20216;-80
2024/01/27 08:49:27;;;;;;;23.53;8.83;;;3.90;99.90;;;;;;7288173;19;20216;-78
2024/01/27 08:51:54;;;;;;;23.53;8.23;;;3.90;99.90;;;;;;7314905;19;20187;-80
2024/01/27 08:54:23;;;;;;;22.83;8.00;;;3.90;99.90;;;;;;7313644;19;20690;-82
2024/01/27 08:56:48;;;;;;;22.83;7.27;;;3.90;99.90;;;;;;7292642;19;20189;-78
2024/01/27 08:59:14;;;;;;;22.57;7.30;;;3.90;99.90;;;;;;7288468;19;20180;-79
2024/01/27 09:01:40;;;;;;;18.93;7.63;;;3.90;99.90;;;;;;7286659;19;20580;-79
2024/01/27 09:04:06;;;;;;;22.60;6.53;;;4.00;99.90;;;;;;7286261;19;20656;-79
2024/01/27 09:06:31;;;;;;;19.50;6.70;;;4.10;99.90;;;;;;7286978;19;20189;-79
2024/01/27 09:08:57;;;;;;;22.10;6.70;;;4.20;99.90;;;;;;7285225;19;20261;-79
2024/01/27 09:11:23;;;;;;;25.13;6.07;;;4.20;99.90;;;;;;7310149;19;20183;-80
2024/01/27 09:13:51;;;;;;;19.07;5.80;;;4.30;99.90;;;;;;7287822;19;20647;-79
2024/01/27 09:16:18;;;;;;;24.83;5.90;;;4.40;99.90;;;;;;7286468;19;20586;-79
2024/01/27 09:18:43;;;;;;;22.60;6.43;;;4.60;99.90;;;;;;7287027;19;20198;-80
2024/01/27 09:21:09;;;;;;;21.10;6.17;;;4.80;99.90;;;;;;7286858;19;20249;-79
2024/01/27 09:23:35;;;;;;;20.20;6.03;;;4.90;99.90;;;;;;7285477;19;20564;-79
2024/01/27 09:26:05;;;;;;;19.77;6.03;;;5.10;99.90;;;;;;7284364;19;20213;-79
2024/01/27 09:28:31;;;;;;;18.70;5.27;;;5.20;99.90;;;;;;7287984;19;20199;-80
2024/01/27 09:30:56;;;;;;;25.90;5.93;;;5.40;99.90;;;;;;7289930;19;20194;-78
2024/01/27 09:33:23;;;;;;;21.27;6.00;;;5.50;99.90;;;;;;7313276;19;20193;-80
2024/01/27 09:35:49;;;;;;;23.47;4.70;;;5.70;99.90;;;;;;7287573;19;20261;-80
2024/01/27 09:38:15;;;;;;;22.23;5.57;;;5.80;99.90;;;;;;7286475;19;20192;-79
2024/01/27 09:40:41;;;;;;;25.93;5.10;;;6.00;99.90;;;;;;7285141;19;20263;-80
2024/01/27 09:43:12;;;;;;;22.83;5.17;;;6.10;99.90;;;;;;7285120;19;20188;-80
2024/01/27 09:45:39;;;;;;;15.30;4.07;;;6.20;99.90;;;;;;7285990;19;20277;-77
2024/01/27 09:48:07;;;;;;;22.03;4.43;;;6.40;99.90;;;;;;7285037;19;20178;-77
2024/01/27 09:50:34;;;;;;;13.57;3.93;;;6.50;99.90;;;;;;7286911;19;20189;-77
2024/01/27 09:53:00;;;;;;;20.13;4.60;;;6.60;99.90;;;;;;7285793;19;20888;-78
2024/01/27 09:55:26;;;;;;;18.93;4.20;;;6.70;99.90;;;;;;7286466;19;20256;-78
2024/01/27 09:57:52;;;;;;;17.57;4.57;;;6.80;99.90;;;;;;7306312;19;20611;-78
2024/01/27 10:00:19;;;;;;;22.27;5.53;;;6.90;99.90;;;;;;7285947;19;20192;-80
2024/01/27 10:02:46;;;;;;;23.67;5.20;;;7.00;99.90;;;;;;7285476;19;20190;-77
2024/01/27 10:05:13;;;;;;;25.50;5.27;;;7.00;99.90;;;;;;7284350;19;20220;-76
2024/01/27 10:07:40;;;;;;;24.73;4.60;;;7.20;99.90;;;;;;7283880;19;20185;-76
2024/01/27 10:10:06;;;;;;;17.80;4.50;;;7.30;99.90;;;;;;7283071;19;20184;-76
2024/01/27 10:12:35;;;;;;;19.13;4.90;;;7.30;99.90;;;;;;7284455;19;20185;-77
2024/01/27 10:15:00;;;;;;;21.07;6.10;;;7.40;99.90;;;;;;7284476;19;20184;-77
2024/01/27 10:17:32;;;;;;;21.47;5.97;;;7.60;99.90;;;;;;7282218;19;20577;-76
2024/01/27 10:20:07;;;;;;;23.80;7.67;;;7.70;99.90;;;;;;7282866;19;20181;-77
2024/01/27 10:22:39;;;;;;;18.47;4.97;;;8.20;99.90;;;;;;7282884;19;20551;-77
2024/01/27 10:25:06;;;;;;;15.07;4.60;;;8.80;99.90;;;;;;7282459;19;20189;-76
2024/01/27 10:27:32;;;;;;;19.83;4.73;;;9.70;99.90;;;;;;7282399;19;20207;-78
2024/01/27 10:29:57;;;;;;;15.13;4.20;;;10.40;99.90;;;;;;7283091;19;20185;-77
2024/01/27 10:32:23;;;;;;;15.97;5.00;;;11.50;99.90;;;;;;7303778;19;20191;-76
2024/01/27 10:35:03;;;;;;;17.73;4.43;;;12.70;99.90;;;;;;7297690;19;20181;-77
2024/01/27 10:37:29;;;;;;;18.70;4.07;;;14.40;99.90;;;;;;7179922;19;2004823;-77
2024/01/27 10:40:07;;;;;;;13.93;3.80;;;15.40;99.90;;;;;;7292854;19;20195;-76
2024/01/27 10:42:34;;;;;;;14.47;3.73;;;15.40;99.90;;;;;;7283080;19;20302;-77
2024/01/27 10:45:00;;;;;;;11.60;3.27;;;16.30;99.90;;;;;;7286128;19;20239;-76
2024/01/27 10:47:30;;;;;;;10.40;2.90;;;17.20;99.90;;;;;;7300347;19;20188;-76
2024/01/27 10:49:57;;;;;;;13.20;3.30;;;18.00;99.90;;;;;;7283101;19;20193;-77
2024/01/27 10:52:28;;;;;;;12.87;2.90;;;18.90;99.90;;;;;;7304782;19;20291;-76
2024/01/27 10:55:07;;;;;;;10.37;2.90;;;19.60;99.90;;;;;;7299351;19;20185;-77
2024/01/27 10:57:37;;;;;;;12.67;2.70;;;19.30;99.90;;;;;;7284554;19;20192;-77
2024/01/27 11:00:06;;;;;;;10.17;3.03;;;19.30;99.90;;;;;;7281661;19;20193;-79
2024/01/27 11:02:33;;;;;;;12.50;2.80;;;19.80;99.90;;;;;;7282970;19;20250;-78
2024/01/27 11:05:03;;;;;;;14.27;2.97;;;20.30;98.30;;;;;;7283163;19;20584;-78
2024/01/27 11:07:34;;;;;;;11.30;2.60;;;20.70;95.70;;;;;;7281971;19;20210;-77
2024/01/27 11:10:00;;;;;;;11.27;2.73;;;21.30;94.20;;;;;;7282293;19;20255;-78
2024/01/27 11:12:26;;;;;;;13.23;2.83;;;21.80;92.30;;;;;;7283785;19;20216;-78
2024/01/27 11:14:53;;;;;;;12.20;2.80;;;21.50;90.70;;;;;;7305163;19;20188;-78
2024/01/27 11:17:19;;;;;;;13.13;3.10;;;22.00;87.40;;;;;;7283675;19;20304;-78
2024/01/27 11:19:46;;;;;;;11.23;2.93;;;21.70;85.00;;;;;;7284001;19;20178;-78
2024/01/27 11:22:26;;;;;;;12.67;3.30;;;21.50;84.80;;;;;;7282544;19;20657;-78
2024/01/27 11:25:13;;;;;;;11.30;3.03;;;21.70;86.10;;;;;;7283282;19;20189;-77
2024/01/27 11:27:40;;;;;;;11.70;2.70;;;21.90;82.80;;;;;;7179452;19;2004383;-77
2024/01/27 11:30:27;;;;;;;13.30;3.07;;;21.10;82.00;;;;;;7280760;19;20196;-77
2024/01/27 11:32:57;;;;;;;13.30;3.20;;;20.90;81.30;;;;;;7284181;19;20278;-77
2024/01/27 11:35:24;;;;;;;11.90;3.07;;;20.60;80.10;;;;;;7282395;19;20245;-77
2024/01/27 11:37:50;;;;;;;12.50;2.63;;;20.30;82.70;;;;;;7282174;19;20193;-78
2024/01/27 11:40:15;;;;;;;12.10;2.80;;;20.10;84.60;;;;;;7284836;19;20202;-78
2024/01/27 11:42:42;;;;;;;11.30;2.90;;;19.80;82.30;;;;;;7288338;19;20722;-77
2024/01/27 11:45:09;;;;;;;10.87;2.70;;;20.00;84.70;;;;;;7287872;19;20209;-78
2024/01/27 11:47:35;;;;;;;10.60;2.73;;;20.00;84.10;;;;;;7289152;19;20193;-78
2024/01/27 11:50:03;;;;;;;13.83;3.33;;;20.30;82.10;;;;;;7288534;19;20707;-77
2024/01/27 11:52:29;;;;;;;10.33;2.80;;;19.70;80.90;;;;;;7288518;19;20237;-76
2024/01/27 11:54:59;;;;;;;10.93;2.90;;;20.20;83.90;;;;;;7303414;19;20224;-76
2024/01/27 11:57:26;;;;;;;12.77;3.47;;;20.30;81.30;;;;;;7294618;19;20188;-77
2024/01/27 11:59:52;;;;;;;11.33;3.37;;;20.20;80.90;;;;;;7311886;19;20212;-77
2024/01/27 12:02:18;;;;;;;12.17;3.07;;;20.20;81.90;;;;;;7287603;19;20207;-77
2024/01/27 12:04:44;;;;;;;12.47;2.90;;;20.40;80.80;;;;;;7288356;19;20212;-76
2024/01/27 12:07:10;;;;;;;13.57;3.37;;;19.10;77.60;;;;;;7289553;19;20213;-76
2024/01/27 12:09:37;;;;;;;11.17;2.80;;;19.30;83.90;;;;;;7287672;19;20191;-77
2024/01/27 12:12:04;;;;;;;9.30;2.90;;;19.70;83.30;;;;;;7288729;19;20189;-76
2024/01/27 12:14:50;;;;;;;11.60;2.60;;;19.80;82.30;;;;;;7289707;19;20280;-77
2024/01/27 12:17:16;;;;;;;11.57;3.00;;;19.10;78.60;;;;;;7286721;19;20190;-77
2024/01/27 12:19:55;;;;;;;10.80;2.93;;;18.80;80.40;;;;;;7287227;19;20193;-77
2024/01/27 12:22:28;;;;;;;13.27;3.40;;;18.20;81.60;;;;;;7286220;19;20541;-77
2024/01/27 12:24:56;;;;;;;10.77;3.50;;;18.00;81.80;;;;;;7283155;19;20189;-76
2024/01/27 12:27:23;;;;;;;14.33;3.80;;;18.40;82.50;;;;;;7310177;19;20270;-79
2024/01/27 12:29:49;;;;;;;14.40;3.90;;;18.70;82.80;;;;;;7284378;19;20259;-76
2024/01/27 12:32:16;;;;;;;11.43;3.50;;;19.40;81.40;;;;;;7284792;19;20507;-76
2024/01/27 12:34:42;;;;;;;12.97;3.10;;;19.60;79.30;;;;;;7285752;19;20217;-76
2024/01/27 12:37:13;;;;;;;11.80;2.90;;;19.60;78.90;;;;;;7286105;19;20641;-79
2024/01/27 12:39:43;;;;;;;13.67;3.50;;;19.70;78.50;;;;;;7286970;19;20212;-77